Weather at Scatsta Airport [CLOSED]

Public forecast

Using degrees Celsius for public forecast. Weather courtesy of forecast.io.

Closest aviation weather report (METAR) to Scatsta Airport

Closest report is Sumburgh Airport, 33.3 nm (61.6 km) S.

2024/02/24 03:20 (retrieved 32 minutes ago)

EGPB 240320Z AUTO 28004KT 9999 BKN019/// 06/02 Q0984

Closest aviation forecast (TAF) to Scatsta Airport

Forecast is more than 6 hours old.

Closest forecast is Quaqtaq Airport, 1,913.1 nm (3,543.1 km) WNW.

2024/02/23 20:09 Ammendment (retrieved 8 hours ago)

TAF AMD TAF AMD CYHA 232106Z 2320/2322 CNL RMK NO OBS NXT FCST BY 241500Z